Time;durP1;ratioP1;P1;durP2;ratioP2;P2;SDS_P1;SDS_P2;PMS_P1;PMS_P2;Temp;Humidity;BMP_temperature;BMP_pressure;BME280_temperature;BME280_humidity;BME280_pressure;Samples;Min_cycle;Max_cycle;Signal;HPM_P1;HPM_P2
2022/01/15 00:00:35;;;;;;;;;28.00;27.50;;;;;20.41;31.47;102509.19;4994176;28;45496;-54
2022/01/15 00:03:05;;;;;;;;;28.75;27.50;;;;;20.38;31.11;102502.25;4994112;28;45904;-57
2022/01/15 00:05:32;;;;;;;;;35.25;28.75;;;;;20.35;31.40;102489.16;4993899;28;45205;-58
2022/01/15 00:07:58;;;;;;;;;28.25;27.75;;;;;20.36;31.07;102488.25;4993739;28;45423;-53
2022/01/15 00:10:28;;;;;;;;;33.50;29.75;;;;;20.35;31.06;102490.94;4993966;27;45537;-55
2022/01/15 00:12:58;;;;;;;;;34.50;31.50;;;;;20.34;31.40;102491.84;4976082;28;45545;-60
2022/01/15 00:15:29;;;;;;;;;29.25;28.75;;;;;20.32;31.33;102491.91;4993784;28;45419;-51
2022/01/15 00:18:00;;;;;;;;;34.00;31.00;;;;;20.32;31.35;102486.63;4993722;28;45333;-59
2022/01/15 00:20:27;;;;;;;;;33.25;29.25;;;;;20.31;31.10;102486.66;4993913;28;45488;-59
2022/01/15 00:22:54;;;;;;;;;32.00;29.25;;;;;20.30;31.64;102485.81;4993287;27;45338;-59
2022/01/15 00:25:21;;;;;;;;;31.75;30.75;;;;;20.28;31.30;102484.13;4993565;28;45225;-57
2022/01/15 00:27:47;;;;;;;;;40.00;33.25;;;;;20.27;31.17;102482.41;4994058;28;45437;-50
2022/01/15 00:30:14;;;;;;;;;34.25;31.50;;;;;20.26;31.19;102476.25;4994085;28;45620;-52
2022/01/15 00:32:39;;;;;;;;;35.25;32.25;;;;;20.25;31.58;102482.44;4993638;28;46363;-61
2022/01/15 00:35:06;;;;;;;;;33.00;28.00;;;;;20.23;31.66;102478.97;4993505;28;45438;-57
2022/01/15 00:37:32;;;;;;;;;34.50;30.75;;;;;20.23;31.39;102473.72;4993620;28;45444;-53
2022/01/15 00:40:05;;;;;;;;;31.50;30.75;;;;;20.22;31.21;102474.66;4976375;28;45788;-60
2022/01/15 00:42:32;;;;;;;;;30.50;30.25;;;;;20.20;31.06;102472.03;4975956;28;46800;-54
2022/01/15 00:44:59;;;;;;;;;35.00;33.00;;;;;20.19;31.48;102470.31;4993418;28;45375;-60
2022/01/15 00:47:30;;;;;;;;;34.25;31.25;;;;;20.18;31.19;102462.47;4993314;28;45329;-56
2022/01/15 00:49:56;;;;;;;;;34.50;31.75;;;;;20.16;31.47;102459.00;4993375;28;45347;-60
2022/01/15 00:52:21;;;;;;;;;38.50;32.00;;;;;20.15;31.49;102463.41;4975410;28;46576;-55
2022/01/15 00:54:46;;;;;;;;;36.00;31.67;;;;;20.12;31.17;102467.91;4993422;28;45426;-58
2022/01/15 00:57:12;;;;;;;;;36.75;31.50;;;;;20.11;31.33;102468.81;4996152;27;45233;-58
2022/01/15 00:59:37;;;;;;;;;40.50;33.25;;;;;20.09;31.64;102466.19;4996353;28;45649;-57
2022/01/15 01:02:03;;;;;;;;;36.50;33.00;;;;;20.07;31.67;102460.09;4978208;28;47026;-56
2022/01/15 01:04:28;;;;;;;;;36.00;32.75;;;;;20.07;31.35;102454.84;4995902;28;45246;-57
2022/01/15 01:06:53;;;;;;;;;38.75;32.25;;;;;20.06;31.46;102454.00;4996192;28;45313;-60
2022/01/15 01:09:19;;;;;;;;;37.50;32.00;;;;;20.05;31.76;102446.16;4996478;27;45405;-53
2022/01/15 01:11:52;;;;;;;;;32.00;31.25;;;;;20.03;31.41;102443.53;4996247;28;45524;-58
2022/01/15 01:25:04;;;;;;;;;36.00;31.75;;;;;19.99;31.89;102431.41;4995869;28;45384;-55
2022/01/15 01:27:42;;;;;;;;;40.75;34.75;;;;;19.98;31.48;102426.16;4996123;27;45439;-58
2022/01/15 01:30:19;;;;;;;;;40.25;35.00;;;;;19.97;32.04;102427.94;4996036;28;45455;-50
2022/01/15 01:35:27;;;;;;;;;35.75;33.25;;;;;19.95;31.66;102419.22;4995792;27;45933;-56
2022/01/15 01:37:54;;;;;;;;;43.50;35.75;;;;;19.96;31.57;102426.22;4995765;28;45287;-57
2022/01/15 01:42:57;;;;;;;;;51.00;38.33;;;;;19.92;31.86;102414.91;4995591;28;45359;-56
2022/01/15 01:45:23;;;;;;;;;35.50;32.50;;;;;19.93;31.58;102421.03;4995662;28;45971;-57
2022/01/15 01:47:49;;;;;;;;;40.75;36.25;;;;;19.95;31.59;102419.22;4995942;27;45347;-56
2022/01/15 01:50:24;;;;;;;;;39.25;34.00;;;;;19.97;31.63;102422.69;4995950;27;45303;-56
2022/01/15 01:52:52;;;;;;;;;37.50;33.75;;;;;19.99;31.87;102420.88;4996071;28;45300;-47
2022/01/15 01:55:22;;;;;;;;;42.75;36.00;;;;;20.02;32.14;102423.38;4995846;28;45205;-49
2022/01/15 01:57:48;;;;;;;;;38.00;33.50;;;;;20.05;31.75;102418.06;4996027;28;45377;-48
2022/01/15 02:00:16;;;;;;;;;40.50;35.00;;;;;20.10;31.54;102401.28;4995632;28;45556;-49
2022/01/15 02:02:41;;;;;;;;;41.25;35.00;;;;;20.14;31.56;102397.63;4995321;28;46162;-49
2022/01/15 02:05:08;;;;;;;;;41.00;35.00;;;;;20.18;31.60;102396.66;4995349;28;45225;-50
2022/01/15 02:07:35;;;;;;;;;44.25;34.75;;;;;20.21;31.91;102392.16;4976922;28;45237;-53
2022/01/15 02:10:01;;;;;;;;;44.25;37.50;;;;;20.25;31.39;102395.56;4995527;28;45486;-50
2022/01/15 02:12:26;;;;;;;;;45.00;36.50;;;;;20.30;31.87;102390.16;4995193;28;46380;-48
2022/01/15 02:14:51;;;;;;;;;43.50;33.75;;;;;20.31;31.41;102390.13;4995545;28;45542;-57
2022/01/15 02:17:19;;;;;;;;;40.50;35.75;;;;;20.36;31.38;102389.97;4995507;28;45384;-58
2022/01/15 02:20:08;;;;;;;;;38.75;34.25;;;;;20.39;31.84;102390.75;4995559;28;45525;-56
2022/01/15 02:25:15;;;;;;;;;41.00;35.00;;;;;20.44;31.86;102382.69;4995229;28;45864;-52
2022/01/15 02:27:40;;;;;;;;;40.75;33.75;;;;;20.46;31.22;102386.16;4995127;27;45378;-55
2022/01/15 02:30:06;;;;;;;;;45.00;35.00;;;;;20.48;31.16;102381.72;4995385;28;45636;-54
2022/01/15 02:32:32;;;;;;;;;37.25;34.25;;;;;20.50;31.42;102385.16;4995156;28;45421;-58
2022/01/15 02:34:59;;;;;;;;;42.00;35.00;;;;;20.52;31.47;102387.75;4995069;28;45315;-56
2022/01/15 02:37:25;;;;;;;;;38.00;33.75;;;;;20.51;31.57;102380.75;4995271;27;45217;-55
2022/01/15 02:39:50;;;;;;;;;42.75;35.50;;;;;20.52;31.13;102375.41;4978114;28;45273;-56
2022/01/15 02:42:15;;;;;;;;;43.25;37.25;;;;;20.53;31.55;102376.31;4994993;28;46424;-51
2022/01/15 02:44:43;;;;;;;;;42.00;33.75;;;;;20.52;31.15;102372.78;4994873;27;45301;-47
2022/01/15 02:49:34;;;;;;;;;38.25;34.25;;;;;20.54;31.06;102370.13;4995224;28;45335;-51
2022/01/15 02:51:59;;;;;;;;;43.75;36.50;;;;;20.55;31.64;102371.84;4994943;28;45993;-46
2022/01/15 02:54:25;;;;;;;;;40.00;35.25;;;;;20.55;31.31;102363.94;4994932;27;45359;-50
2022/01/15 02:56:50;;;;;;;;;41.00;34.25;;;;;20.55;30.83;102363.94;4995453;27;45608;-44
2022/01/15 02:59:22;;;;;;;;;35.50;33.00;;;;;20.54;31.35;102365.69;4995039;28;45626;-56
2022/01/15 03:01:49;;;;;;;;;44.25;37.00;;;;;20.55;31.28;102364.78;4994906;28;46350;-50
2022/01/15 03:04:15;;;;;;;;;36.75;34.00;;;;;20.55;31.33;102354.25;4994723;28;45489;-47
2022/01/15 03:06:40;;;;;;;;;43.75;34.50;;;;;20.55;30.96;102345.50;4995068;28;45441;-45
2022/01/15 03:09:05;;;;;;;;;36.50;33.25;;;;;20.54;31.42;102349.91;4994906;28;45647;-51
2022/01/15 03:11:31;;;;;;;;;41.75;33.75;;;;;20.54;31.13;102342.00;4994502;27;45509;-45
2022/01/15 03:13:56;;;;;;;;;41.50;36.00;;;;;20.52;30.75;102341.19;4994613;28;45482;-49
2022/01/15 03:16:22;;;;;;;;;38.25;34.50;;;;;20.53;30.86;102342.06;4995079;28;45267;-50
2022/01/15 03:18:48;;;;;;;;;38.75;34.00;;;;;20.52;30.95;102341.19;4994356;28;45549;-43
2022/01/15 03:21:14;;;;;;;;;37.25;34.00;;;;;20.52;31.55;102340.34;4994408;28;45470;-44
2022/01/15 03:23:40;;;;;;;;;43.75;36.75;;;;;20.52;31.19;102348.22;4994193;27;45426;-44
2022/01/15 03:26:07;;;;;;;;;43.00;35.75;;;;;20.51;31.23;102338.59;4994706;28;45237;-44
2022/01/15 03:28:33;;;;;;;;;41.50;34.50;;;;;20.50;31.43;102353.56;4976950;28;45300;-45
2022/01/15 03:30:59;;;;;;;;;44.75;36.50;;;;;20.49;31.35;102341.28;4994290;27;46693;-44
2022/01/15 03:33:24;;;;;;;;;37.75;34.00;;;;;20.47;31.50;102335.22;4994617;28;45528;-47
2022/01/15 03:35:49;;;;;;;;;35.75;33.25;;;;;20.49;31.51;102329.88;4994570;28;45363;-44
2022/01/15 03:38:15;;;;;;;;;37.50;33.00;;;;;20.47;31.21;102318.53;4976903;28;45462;-47
2022/01/15 03:40:40;;;;;;;;;37.75;34.75;;;;;20.46;31.24;102325.59;4994127;28;45317;-48
2022/01/15 03:43:06;;;;;;;;;37.00;32.75;;;;;20.44;31.76;102316.88;4994194;28;45395;-51
2022/01/15 03:45:33;;;;;;;;;39.50;33.50;;;;;20.44;31.21;102321.28;4994451;28;45378;-51
2022/01/15 03:47:59;;;;;;;;;41.25;34.50;;;;;20.42;31.11;102317.84;4994501;27;45556;-50
2022/01/15 03:50:25;;;;;;;;;32.00;29.00;;;;;20.42;31.37;102312.56;4994399;27;46366;-46
2022/01/15 03:52:53;;;;;;;;;39.50;33.50;;;;;20.40;31.50;102309.97;4976568;28;46097;-48
2022/01/15 03:55:20;;;;;;;;;37.00;32.75;;;;;20.38;31.51;102302.13;4994256;27;45307;-55
2022/01/15 03:57:45;;;;;;;;;41.25;33.00;;;;;20.38;31.66;102302.13;4976716;28;45627;-50
2022/01/15 04:00:26;;;;;;;;;33.25;31.25;;;;;20.37;31.47;102304.81;4993991;27;46458;-54
2022/01/15 04:02:53;;;;;;;;;32.75;31.00;;;;;20.35;31.06;102296.09;4993898;28;45344;-49
2022/01/15 04:05:19;;;;;;;;;38.25;33.25;;;;;20.33;31.22;102288.25;4994332;27;45311;-51
2022/01/15 04:07:44;;;;;;;;;37.00;32.75;;;;;20.30;31.18;102285.69;4976528;28;45496;-56
2022/01/15 04:10:12;;;;;;;;;37.50;31.75;;;;;20.31;31.60;102284.78;4993628;27;46659;-47
2022/01/15 04:12:38;;;;;;;;;41.75;32.50;;;;;20.31;31.14;102284.78;4993951;28;45311;-55
2022/01/15 04:15:06;;;;;;;;;38.75;34.00;;;;;20.29;31.52;102281.34;4994106;28;45219;-47
2022/01/15 04:17:31;;;;;;;;;36.50;32.25;;;;;20.28;31.56;102282.25;4994170;28;45269;-50
2022/01/15 04:19:58;;;;;;;;;35.50;30.50;;;;;20.27;31.49;102277.91;4994013;28;46286;-50
2022/01/15 04:22:23;;;;;;;;;38.00;33.25;;;;;20.26;31.50;102276.16;4993641;28;45982;-47
2022/01/15 04:24:48;;;;;;;;;35.00;31.50;;;;;20.25;31.17;102277.06;4993831;28;45449;-50
2022/01/15 04:27:14;;;;;;;;;36.00;32.00;;;;;20.22;31.22;102277.19;4993956;27;45607;-50
2022/01/15 04:29:39;;;;;;;;;38.00;34.25;;;;;20.23;31.47;102278.88;4992815;28;46233;-51
2022/01/15 04:32:05;;;;;;;;;41.75;34.75;;;;;20.19;31.42;102269.38;4993312;28;45321;-52
2022/01/15 04:34:31;;;;;;;;;42.75;35.25;;;;;20.20;31.46;102279.00;4993577;28;45362;-53
2022/01/15 04:37:09;;;;;;;;;42.25;34.75;;;;;20.17;31.21;102272.06;4976470;28;45474;-51
2022/01/15 04:39:34;;;;;;;;;34.50;31.25;;;;;20.15;31.61;102260.72;4993164;28;46269;-57
2022/01/15 04:41:59;;;;;;;;;42.50;33.50;;;;;20.15;31.25;102262.47;4993871;28;45380;-51
2022/01/15 04:44:25;;;;;;;;;42.50;35.50;;;;;20.13;31.82;102265.16;4993626;28;45336;-53
2022/01/15 04:46:52;;;;;;;;;41.00;34.75;;;;;20.11;31.34;102260.88;4993922;27;45821;-58
2022/01/15 04:49:18;;;;;;;;;45.00;35.75;;;;;20.10;31.29;102257.34;4993260;28;46595;-59
2022/01/15 04:51:43;;;;;;;;;41.75;35.00;;;;;20.06;31.29;102263.66;4993240;28;45404;-60
2022/01/15 04:54:08;;;;;;;;;43.00;34.50;;;;;20.04;31.16;102254.94;4975803;28;45413;-52
2022/01/15 04:56:34;;;;;;;;;42.50;37.25;;;;;20.04;31.34;102260.19;4993588;27;45585;-57
2022/01/15 04:58:59;;;;;;;;;43.50;35.50;;;;;20.02;31.72;102257.59;4993461;28;45301;-54
2022/01/15 05:01:25;;;;;;;;;44.00;35.25;;;;;20.03;31.26;102264.56;4993212;28;45336;-59
2022/01/15 05:03:50;;;;;;;;;41.25;35.75;;;;;20.01;31.34;102255.00;4993071;28;45894;-58
2022/01/15 05:06:15;;;;;;;;;45.75;37.00;;;;;20.00;31.58;102263.81;4975761;28;45529;-58
2022/01/15 05:08:42;;;;;;;;;41.50;33.75;;;;;19.99;31.22;102260.34;4992986;28;45495;-55
2022/01/15 05:11:30;;;;;;;;;43.75;35.75;;;;;19.99;31.40;102256.81;4992883;28;45228;-53
2022/01/15 05:13:55;;;;;;;;;44.50;36.25;;;;;19.97;31.21;102251.63;4993208;28;45285;-55
2022/01/15 05:16:21;;;;;;;;;44.00;36.50;;;;;19.97;31.75;102248.09;4993363;28;45589;-55
2022/01/15 05:18:46;;;;;;;;;42.50;34.75;;;;;19.94;31.36;102246.44;4992842;28;45280;-53
2022/01/15 05:21:12;;;;;;;;;47.50;37.50;;;;;19.95;31.51;102242.06;4993140;28;45284;-45
2022/01/15 05:23:37;;;;;;;;;40.50;37.00;;;;;19.95;31.42;102245.53;4993217;28;45809;-50
2022/01/15 05:26:03;;;;;;;;;44.25;37.75;;;;;19.95;31.70;102248.16;4993212;28;45380;-47
2022/01/15 05:28:29;;;;;;;;;46.00;34.75;;;;;19.95;31.89;102245.53;4993060;28;45344;-45
2022/01/15 05:30:54;;;;;;;;;40.75;34.75;;;;;19.97;31.82;102250.75;4992767;28;45446;-49
2022/01/15 05:33:19;;;;;;;;;43.50;36.75;;;;;20.01;31.93;102244.47;4992774;28;45340;-48
2022/01/15 05:35:45;;;;;;;;;44.00;38.00;;;;;20.04;31.74;102241.78;4993048;28;45448;-56
2022/01/15 05:38:10;;;;;;;;;44.75;37.50;;;;;20.07;31.48;102239.03;4992541;28;47196;-57
2022/01/15 05:40:36;;;;;;;;;38.00;35.00;;;;;20.11;31.20;102237.19;4992473;28;45397;-59
2022/01/15 05:43:02;;;;;;;;;40.25;35.75;;;;;20.15;31.43;102241.41;4995775;28;45406;-60
2022/01/15 05:45:28;;;;;;;;;43.75;36.00;;;;;20.20;31.79;102250.03;4995910;28;45588;-60
2022/01/15 05:47:54;;;;;;;;;43.00;37.75;;;;;20.24;31.46;102254.28;4995880;28;46250;-60
2022/01/15 05:50:19;;;;;;;;;48.25;36.50;;;;;20.27;31.38;102256.84;4995597;27;45285;-59
2022/01/15 05:52:45;;;;;;;;;42.75;35.00;;;;;20.28;31.23;102250.66;4995716;28;45236;-59
2022/01/15 05:55:11;;;;;;;;;44.25;37.00;;;;;20.31;31.03;102247.06;4995929;27;45226;-60
2022/01/15 05:57:36;;;;;;;;;44.25;35.75;;;;;20.36;31.28;102253.91;4995509;27;45672;-59
2022/01/15 06:00:04;;;;;;;;;40.00;34.25;;;;;20.39;31.15;102256.44;4995889;28;45213;-60
2022/01/15 06:02:30;;;;;;;;;43.75;36.75;;;;;20.43;31.58;102257.19;4995922;28;45423;-58
2022/01/15 06:04:55;;;;;;;;;41.25;33.75;;;;;20.45;30.99;102259.81;4995732;28;45442;-59
2022/01/15 06:07:20;;;;;;;;;41.00;36.25;;;;;20.48;31.52;102259.69;4995453;27;45484;-60
2022/01/15 06:09:46;;;;;;;;;39.00;36.00;;;;;20.48;30.95;102259.69;4995183;28;46990;-59
2022/01/15 06:12:11;;;;;;;;;43.25;36.75;;;;;20.50;30.96;102252.59;4995455;28;45437;-57
2022/01/15 06:14:36;;;;;;;;;40.50;35.50;;;;;20.50;31.51;102261.38;4995503;27;45414;-55
2022/01/15 06:17:03;;;;;;;;;39.50;35.50;;;;;20.53;30.93;102260.41;4977817;28;48234;-53
2022/01/15 06:19:29;;;;;;;;;42.25;36.00;;;;;20.52;30.93;102254.25;4977718;28;45584;-52
2022/01/15 06:21:56;;;;;;;;;43.25;36.75;;;;;20.54;30.94;102260.34;4995362;28;45292;-54
2022/01/15 06:24:22;;;;;;;;;46.50;37.00;;;;;20.53;31.29;102252.50;4995413;28;45442;-53
2022/01/15 06:26:47;;;;;;;;;42.00;36.50;;;;;20.54;31.25;102248.97;4995150;28;45457;-56
2022/01/15 06:29:12;;;;;;;;;40.25;36.25;;;;;20.55;30.76;102253.31;4995080;28;45486;-55
2022/01/15 06:31:38;;;;;;;;;45.25;38.50;;;;;20.55;31.31;102250.69;4995316;28;45289;-59
2022/01/15 06:34:03;;;;;;;;;49.75;40.75;;;;;20.55;31.07;102254.16;4995772;27;45490;-58
2022/01/15 06:36:28;;;;;;;;;47.50;38.50;;;;;20.54;31.25;102249.81;4995009;28;45569;-54
2022/01/15 06:38:54;;;;;;;;;48.00;38.25;;;;;20.54;30.77;102249.81;4995099;28;45367;-59
2022/01/15 06:41:20;;;;;;;;;42.00;36.00;;;;;20.55;30.95;102245.41;4995251;28;45418;-57
2022/01/15 06:43:45;;;;;;;;;48.00;38.75;;;;;20.54;30.63;102239.28;4977558;28;45455;-52
2022/01/15 06:46:11;;;;;;;;;46.00;39.25;;;;;20.57;30.76;102240.09;4977494;28;46180;-56
2022/01/15 06:48:37;;;;;;;;;44.25;39.00;;;;;20.54;30.80;102243.69;4995510;28;45395;-58
2022/01/15 06:51:03;;;;;;;;;45.00;38.00;;;;;20.54;30.82;102244.53;4995519;28;45355;-50
2022/01/15 06:53:29;;;;;;;;;45.75;37.25;;;;;20.54;30.94;102244.53;4994600;28;45338;-58
2022/01/15 06:55:55;;;;;;;;;44.25;37.50;;;;;20.54;30.88;102248.97;4994814;28;46573;-56
2022/01/15 06:58:20;;;;;;;;;46.25;36.50;;;;;20.51;30.55;102235.88;4994969;27;45945;-56
2022/01/15 07:00:46;;;;;;;;;46.75;38.25;;;;;20.51;30.75;102225.34;4977522;28;45286;-58
2022/01/15 07:03:12;;;;;;;;;45.25;37.50;;;;;20.51;30.77;102223.56;4995052;28;45526;-59
2022/01/15 07:05:37;;;;;;;;;47.50;39.75;;;;;20.51;31.16;102222.72;4995203;28;46369;-57
2022/01/15 07:08:03;;;;;;;;;45.25;36.50;;;;;20.49;30.92;102228.03;4994831;27;45509;-60
2022/01/15 07:10:28;;;;;;;;;46.00;37.50;;;;;20.49;31.09;102227.16;4994842;28;45384;-59
2022/01/15 07:12:54;;;;;;;;;46.00;38.25;;;;;20.47;30.85;102211.44;4995056;28;45484;-59
2022/01/15 07:15:20;;;;;;;;;45.25;37.00;;;;;20.47;31.08;102210.56;4994648;28;46058;-52
2022/01/15 07:17:47;;;;;;;;;44.25;37.25;;;;;20.46;30.89;102219.38;4994755;28;45440;-55
2022/01/15 07:20:14;;;;;;;;;43.00;35.50;;;;;20.44;31.25;102214.16;4994866;28;45355;-59
2022/01/15 07:22:40;;;;;;;;;43.00;37.25;;;;;20.44;31.12;102215.94;4994969;27;45533;-57
2022/01/15 07:25:06;;;;;;;;;41.75;36.25;;;;;20.43;31.05;102214.22;4977049;28;45418;-51
2022/01/15 07:27:32;;;;;;;;;39.25;35.00;;;;;20.42;31.38;102217.75;4994327;28;45394;-55
2022/01/15 07:29:57;;;;;;;;;43.50;36.75;;;;;20.41;31.01;102218.66;4994639;28;45367;-57
2022/01/15 07:32:23;;;;;;;;;20.75;19.25;;;;;20.37;30.96;102221.41;4977069;28;45532;-54
2022/01/15 07:34:48;;;;;;;;;41.50;36.00;;;;;20.37;31.29;102215.28;4976789;28;46083;-57
2022/01/15 07:37:14;;;;;;;;;47.00;36.50;;;;;20.35;31.08;102215.31;4976755;28;45958;-60
2022/01/15 07:39:39;;;;;;;;;46.50;37.25;;;;;20.34;31.37;102205.69;4994781;28;45289;-59
2022/01/15 07:42:05;;;;;;;;;42.00;36.25;;;;;20.33;31.20;102206.63;4994836;28;45326;-57
2022/01/15 07:44:31;;;;;;;;;48.00;40.00;;;;;20.31;30.90;102203.19;4994107;27;46520;-55
2022/01/15 07:46:56;;;;;;;;;47.50;41.00;;;;;20.32;31.22;102206.66;4994202;27;45327;-58
2022/01/15 07:49:22;;;;;;;;;45.75;38.75;;;;;20.29;31.11;102207.63;4994300;27;45491;-53
2022/01/15 07:51:47;;;;;;;;;47.75;40.25;;;;;20.30;31.00;102213.75;4994556;28;45545;-58
2022/01/15 07:54:12;;;;;;;;;46.25;38.25;;;;;20.28;31.04;102212.94;4993865;28;46344;-57
2022/01/15 07:56:38;;;;;;;;;46.75;36.50;;;;;20.27;31.47;102214.72;4994323;27;45384;-57
2022/01/15 07:59:03;;;;;;;;;49.25;38.75;;;;;20.26;31.25;102205.09;4994292;27;45252;-54
2022/01/15 08:01:29;;;;;;;;;45.25;38.00;;;;;20.25;31.24;102211.25;4976588;28;45265;-58
2022/01/15 08:03:55;;;;;;;;;7.75;3.00;;;;;20.22;31.06;102214.00;4993885;28;46567;-59
2022/01/15 08:06:21;;;;;;;;;51.50;41.50;;;;;20.20;30.92;102208.78;4992645;28;45228;-54
2022/01/15 08:08:46;;;;;;;;;45.75;38.75;;;;;20.20;31.45;102202.66;4994060;27;45452;-55
2022/01/15 08:11:11;;;;;;;;;51.75;40.50;;;;;20.17;30.89;102197.50;4994233;28;45318;-49
2022/01/15 08:13:37;;;;;;;;;47.50;40.75;;;;;20.17;31.30;102198.38;4994092;28;46309;-55
2022/01/15 08:16:04;;;;;;;;;53.00;42.50;;;;;20.16;30.90;102196.63;4994050;28;45567;-50
2022/01/15 08:18:29;;;;;;;;;52.25;41.00;;;;;20.14;30.92;102198.44;4993849;28;45425;-53
2022/01/15 08:20:55;;;;;;;;;51.25;40.50;;;;;20.12;31.30;102188.91;4993929;28;45350;-52
2022/01/15 08:23:21;;;;;;;;;45.75;39.75;;;;;20.12;30.89;102202.06;4975987;28;47807;-56
2022/01/15 08:25:47;;;;;;;;;48.00;40.75;;;;;20.10;31.21;102195.97;4976114;28;45861;-48
2022/01/15 08:28:12;;;;;;;;;51.00;41.25;;;;;20.08;31.11;102199.50;4993803;27;45308;-50
2022/01/15 08:30:38;;;;;;;;;52.50;43.75;;;;;20.05;31.04;102199.59;4994371;28;45471;-52
2022/01/15 08:33:03;;;;;;;;;52.25;41.50;;;;;20.04;31.46;102197.88;4993472;28;45268;-53
2022/01/15 08:35:28;;;;;;;;;54.00;43.50;;;;;20.03;31.06;102196.16;4993660;28;45407;-59
2022/01/15 08:37:54;;;;;;;;;49.50;41.75;;;;;20.01;31.26;102197.13;4993712;28;45247;-51
2022/01/15 08:40:20;;;;;;;;;54.25;43.50;;;;;20.01;31.40;102202.38;4992455;28;45282;-53
2022/01/15 08:42:46;;;;;;;;;50.50;41.75;;;;;19.99;30.74;102199.81;4993572;28;46577;-54
2022/01/15 08:45:13;;;;;;;;;53.50;43.25;;;;;19.97;30.98;102195.47;4993759;27;45416;-50
2022/01/15 08:47:39;;;;;;;;;48.75;41.75;;;;;19.96;30.89;102194.63;4976364;28;45497;-55
2022/01/15 08:50:06;;;;;;;;;51.75;41.75;;;;;19.98;31.12;102199.84;4993698;28;45554;-51
2022/01/15 08:52:32;;;;;;;;;51.50;43.50;;;;;19.97;31.22;102201.63;4975528;28;46720;-56
2022/01/15 08:54:57;;;;;;;;;53.25;43.75;;;;;20.01;31.10;102205.00;4993241;28;45331;-56
2022/01/15 08:57:22;;;;;;;;;56.25;44.50;;;;;20.02;31.47;102207.59;4993447;28;45743;-53
2022/01/15 08:59:48;;;;;;;;;56.00;45.00;;;;;20.02;31.48;102204.94;4993540;28;45323;-58
2022/01/15 09:02:14;;;;;;;;;52.25;43.25;;;;;20.07;31.40;102213.56;4993624;28;46142;-50
2022/01/15 09:04:39;;;;;;;;;51.50;43.50;;;;;20.11;31.30;102219.59;4993334;28;45348;-57
2022/01/15 09:07:05;;;;;;;;;54.50;45.00;;;;;20.17;31.28;102215.91;4993237;28;45280;-59
2022/01/15 09:09:30;;;;;;;;;51.25;42.25;;;;;20.20;31.20;102221.94;4993130;28;45639;-59
2022/01/15 09:11:55;;;;;;;;;51.50;42.50;;;;;20.24;31.24;102218.31;4975318;28;48030;-59
2022/01/15 09:14:21;;;;;;;;;56.25;45.75;;;;;20.29;31.48;102215.53;4992993;28;45286;-58
2022/01/15 09:16:46;;;;;;;;;54.50;43.75;;;;;20.31;31.63;102218.97;4976609;28;45380;-60
2022/01/15 09:19:12;;;;;;;;;54.50;45.00;;;;;20.35;31.02;102217.94;4996594;28;45280;-60
2022/01/15 09:21:37;;;;;;;;;55.00;44.50;;;;;20.38;31.34;102215.22;4995822;27;46398;-54
2022/01/15 09:24:03;;;;;;;;;52.00;43.75;;;;;20.42;31.11;102208.06;4995752;28;45435;-47
2022/01/15 09:30:11;;;;;;;;;56.25;44.75;;;;;20.45;31.35;102213.25;4995997;28;45284;-56
2022/01/15 09:32:07;;;;;;;;;51.00;41.25;;;;;20.52;30.81;102208.63;4995968;28;45221;-58
2022/01/15 09:34:34;;;;;;;;;56.00;44.00;;;;;20.54;30.67;102202.41;4995710;28;45816;-58
2022/01/15 09:37:01;;;;;;;;;53.25;41.00;;;;;20.57;31.04;102206.69;4996001;28;45307;-53
2022/01/15 09:39:26;;;;;;;;;56.75;42.75;;;;;20.58;30.97;102216.31;4996171;28;45351;-53
2022/01/15 09:41:54;;;;;;;;;49.50;42.25;;;;;20.59;31.25;102212.78;4995766;28;46172;-58
2022/01/15 09:44:21;;;;;;;;;53.00;42.00;;;;;20.61;31.17;102220.66;4995705;28;45243;-60
2022/01/15 09:46:47;;;;;;;;;53.00;43.75;;;;;20.62;31.04;102219.72;4995947;27;45363;-55
2022/01/15 09:49:14;;;;;;;;;56.25;43.75;;;;;20.63;30.60;102222.31;4978647;28;45552;-58
2022/01/15 09:51:40;;;;;;;;;55.50;42.75;;;;;20.64;30.90;102215.25;4995557;28;46133;-56
2022/01/15 09:54:05;;;;;;;;;54.50;44.25;;;;;20.63;30.93;102209.13;4995372;27;45429;-58
2022/01/15 09:56:31;;;;;;;;;54.00;43.50;;;;;20.63;31.08;102217.03;4995803;28;45908;-58
2022/01/15 09:58:58;;;;;;;;;52.75;43.50;;;;;20.65;30.83;102215.22;4995867;28;45413;-52
2022/01/15 10:01:26;;;;;;;;;57.50;46.00;;;;;20.65;30.59;102207.31;4977988;28;47713;-56
2022/01/15 10:03:52;;;;;;;;;54.50;44.50;;;;;20.66;30.50;102211.69;4995491;28;45275;-55
2022/01/15 10:06:17;;;;;;;;;58.00;45.25;;;;;20.66;30.70;102206.41;4995647;27;45310;-54
2022/01/15 10:09:02;;;;;;;;;56.25;44.75;;;;;20.64;30.85;102200.31;4996038;27;45553;-57
2022/01/15 10:11:52;;;;;;;;;54.75;45.75;;;;;20.65;31.03;102204.69;4995350;28;47493;-60
2022/01/15 10:14:31;;;;;;;;;55.25;45.75;;;;;20.65;30.95;102209.94;4995474;28;45513;-47
2022/01/15 10:16:59;;;;;;;;;52.50;44.00;;;;;20.62;30.63;102204.78;4995606;28;45394;-54
2022/01/15 10:19:31;;;;;;;;;57.00;44.25;;;;;20.63;30.83;102206.50;4995507;27;45284;-51
2022/01/15 10:22:04;;;;;;;;;58.00;46.75;;;;;20.64;30.98;102213.50;4995362;28;45469;-58
2022/01/15 10:24:30;;;;;;;;;55.50;44.75;;;;;20.63;30.56;102211.78;4995103;27;45245;-53
2022/01/15 10:26:55;;;;;;;;;57.50;46.25;;;;;20.63;30.90;102203.00;4977673;28;45279;-60
2022/01/15 10:29:20;;;;;;;;;56.67;45.33;;;;;20.62;30.89;102206.53;4994326;27;45512;-60
2022/01/15 10:31:45;;;;;;;;;55.00;45.00;;;;;20.63;30.45;102201.25;4995551;28;46065;-58
2022/01/15 10:34:27;;;;;;;;;57.50;44.75;;;;;20.63;31.06;102189.81;4995206;27;45335;-59
2022/01/15 10:37:15;;;;;;;;;56.25;45.50;;;;;20.61;30.21;102184.63;4995214;28;45296;-53
2022/01/15 10:39:54;;;;;;;;;57.75;46.00;;;;;20.60;30.55;102185.53;4995519;28;45483;-60
2022/01/15 10:42:23;;;;;;;;;53.25;44.00;;;;;20.59;30.51;102177.69;4977847;28;45517;-54
2022/01/15 10:44:52;;;;;;;;;58.25;47.25;;;;;20.59;30.61;102183.81;4994981;27;45660;-53
2022/01/15 10:47:20;;;;;;;;;61.00;48.25;;;;;20.58;30.94;102182.06;4995362;28;45394;-59
2022/01/15 10:49:45;;;;;;;;;58.50;45.75;;;;;20.57;30.88;102174.25;4995463;27;45387;-58
2022/01/15 10:52:11;;;;;;;;;56.25;46.00;;;;;20.55;30.99;102169.88;4994770;28;46246;-56
2022/01/15 10:55:08;;;;;;;;;60.00;48.00;;;;;20.55;30.88;102176.94;4994844;27;45339;-56
2022/01/15 10:57:35;;;;;;;;;59.75;47.25;;;;;20.54;30.63;102178.69;4994912;27;45225;-58
2022/01/15 11:00:11;;;;;;;;;58.25;46.00;;;;;20.53;31.02;102169.06;4994957;27;45383;-61
2022/01/15 11:02:39;;;;;;;;;52.50;41.75;;;;;20.53;30.56;102173.50;4993292;28;47680;-58
2022/01/15 11:05:23;;;;;;;;;54.75;44.50;;;;;20.52;30.60;102174.41;4976868;28;45861;-60
2022/01/15 11:07:49;;;;;;;;;52.75;41.25;;;;;20.51;30.91;102170.88;4995130;28;45319;-56
2022/01/15 11:10:15;;;;;;;;;59.25;45.25;;;;;20.50;31.15;102168.31;4976981;28;45625;-59
2022/01/15 11:12:40;;;;;;;;;58.75;48.25;;;;;20.48;31.01;102168.38;4994542;27;45563;-60
2022/01/15 11:15:07;;;;;;;;;59.50;47.50;;;;;20.48;30.92;102167.50;4994477;28;45359;-58
2022/01/15 11:17:33;;;;;;;;;56.00;46.75;;;;;20.44;30.90;102158.00;4996303;28;45341;-51
2022/01/15 11:20:03;;;;;;;;;59.25;47.25;;;;;20.44;30.99;102164.13;4995113;27;45574;-59
2022/01/15 11:22:32;;;;;;;;;61.50;48.75;;;;;20.44;30.80;102158.84;4994341;28;46137;-57
2022/01/15 11:24:57;;;;;;;;;61.25;48.25;;;;;20.44;30.73;102155.38;4994843;27;45334;-59
2022/01/15 11:27:28;;;;;;;;;57.00;46.25;;;;;20.43;31.31;102145.75;4993182;28;45231;-56
2022/01/15 11:29:57;;;;;;;;;62.75;49.00;;;;;20.42;31.11;102149.28;4994468;28;45585;-59
2022/01/15 11:32:23;;;;;;;;;57.75;44.75;;;;;20.39;31.25;102143.22;4994073;28;45706;-57